Lake Cuyamaca (79) Station Data

Red Flag Warning: No
Fire Weather Zone: 258
SDGE Region: Mountain Empire
Lat/Lon: 32.997/-116.595

Observations

Time Wind Speed/Gust Temp(F) RH Fuel Moist Fuel Temp(F) Dewpt(F) Tmax(F) Tmin(F) Accum Precip 10-min Precip SL Press(mb)
2/27 11:40pm 270 17 G 29 39° 100% - - 39° 43° 38.2° - - -
2/27 11:20pm 254 17 G 30 39° 100% - - 39° 43° 38.2° - - -
2/27 11:10pm 249 16 G 29 40° 100% - - 40° 43° 38.2° - - -
2/27 11:00pm 249 17 G 31 40° 100% - - 40° 43° 38.2° - - -
2/27 10:50pm 234 14 G 26 40° 100% - - 40° 43° 38.2° - - -
2/27 10:40pm 255 19 G 33 40° 100% - - 40° 43° 38.2° - - -
2/27 10:30pm 245 17 G 29 40° 100% - - 40° 43° 38.2° - - -
2/27 10:20pm 250 24 G 38 40° 100% - - 40° 43° 38.2° - - -
2/27 10:10pm 252 19 G 34 41° 100% - - 41° 43° 38.2° - - -
2/27 10:00pm 254 13 G 23 41° 100% - - 41° 43° 38.2° - - -
2/27 9:50pm 247 11 G 19 40° 100% - - 40° 43° 38.2° - - -
2/27 9:40pm 246 13 G 23 40° 100% - - 40° 43° 38.2° - - -
2/27 9:30pm 232 15 G 27 40° 100% - - 40° 43° 38.2° - - -
2/27 9:20pm 238 16 G 32 40° 100% - - 40° 43° 38.2° - - -
2/27 9:10pm 255 15 G 29 40° 100% - - 40° 43° 38.2° - - -
2/27 9:00pm 252 13 G 24 40° 100% - - 40° 43° 38.2° - - -
2/27 8:50pm 231 15 G 25 40° 100% - - 41° 43° 38.2° - - -
2/27 8:40pm 238 16 G 25 41° 100% - - 41° 43° 38.2° - - -
2/27 8:30pm 257 13 G 30 41° 100% - - 41° 43° 38.2° - - -
2/27 8:20pm 259 10 G 27 41° 100% - - 41° 43° 38.2° - - -
2/27 8:10pm 172 10 G 26 41° 100% - - 41° 43° 38.2° - - -
2/27 8:00pm 157 7 G 23 41° 100% - - 41° 43° 38.2° - - -
2/27 7:50pm 161 11 G 28 41° 98% - - 41° 43° 38.2° - - -
2/27 7:40pm 149 10 G 26 41° 95% - - 40° 43° 38.2° - - -
2/27 7:30pm 217 9 G 21 41° 98% - - 40° 43° 38.2° - - -
2/27 7:20pm 272 9 G 27 41° 98% - - 40° 43° 38.2° - - -
2/27 7:10pm 249 13 G 35 41° 100% - - 41° 43° 38.2° - - -
2/27 7:00pm 245 15 G 33 41° 100% - - 41° 43° 38.2° - - -
2/27 6:50pm 246 17 G 39 41° 100% - - 41° 43° 38.2° - - -
2/27 6:40pm 278 13 G 29 41° 100% - - 41° 43° 38.2° - - -
2/27 6:30pm 263 13 G 31 41° 100% - - 41° 43° 38.2° - - -
2/27 6:20pm 262 11 G 29 40° 100% - - 40° 43° 38.2° - - -
2/27 6:10pm 256 10 G 24 40° 100% - - 40° 43° 38.2° - - -
2/27 6:00pm 271 10 G 26 40° 100% - - 40° 43° 38.2° - - -
2/27 5:50pm 244 11 G 24 40° 100% - - 40° 43° 38.2° - - -
2/27 5:40pm 228 11 G 23 40° 100% - - 40° 43° 38.2° - - -
2/27 5:30pm 232 13 G 25 40° 100% - - 40° 43° 38.2° - - -
2/27 5:20pm 242 13 G 24 40° 100% - - 40° 43° 38.2° - - -
2/27 5:10pm 237 13 G 26 40° 100% - - 40° 43° 38.2° - - -
2/27 5:00pm 245 12 G 30 40° 100% - - 40° 43° 38.2° - - -
2/27 4:50pm 234 11 G 25 40° 99% - - 40° 43° 38.2° - - -
2/27 4:40pm 231 13 G 23 40° 100% - - 40° 43° 38.2° - - -
2/27 4:30pm 261 11 G 25 40° 100% - - 40° 43° 38.2° - - -
2/27 4:20pm 176 7 G 21 40° 100% - - 40° 43° 38.2° - - -
2/27 4:10pm 266 10 G 23 40° 100% - - 40° 43° 38.2° - - -
2/27 4:00pm 245 13 G 22 40° 100% - - 40° 43° 38.2° - - -
2/27 3:50pm 247 11 G 23 39° 100% - - 39° 43° 38.2° - - -
2/27 3:40pm 235 14 G 30 40° 100% - - 40° 43° 38.2° - - -
2/27 3:30pm 236 17 G 30 39° 100% - - 39° 43° 38.2° - - -
2/27 3:20pm 219 19 G 33 39° 100% - - 39° 43° 38.2° - - -
2/27 3:10pm 230 20 G 34 40° 100% - - 40° 43° 38.2° - - -
2/27 3:00pm 228 21 G 35 40° 100% - - 40° 43° 38.2° - - -
2/27 2:50pm 217 19 G 38 40° 100% - - 40° 43° 38.2° - - -
2/27 2:40pm 237 20 G 35 40° 100% - - 40° 43° 38.2° - - -
2/27 2:30pm 244 18 G 32 41° 100% - - 41° 43° 38.2° - - -
2/27 2:20pm 254 15 G 28 41° 100% - - 41° 43° 38.2° - - -
2/27 2:10pm 217 14 G 26 41° 100% - - 41° 43° 38.2° - - -
2/27 2:00pm 236 21 G 40 41° 100% - - 41° 43° 38.2° - - -
2/27 1:50pm 229 16 G 31 42° 100% - - 42° 43° 38.2° - - -
2/27 1:40pm 231 17 G 35 42° 100% - - 42° 43° 38.2° - - -
2/27 1:30pm 238 16 G 29 42° 100% - - 42° 43° 38.2° - - -
2/27 1:20pm 240 17 G 32 42° 100% - - 42° 43° 38.2° - - -
2/27 1:10pm 244 16 G 31 42° 100% - - 42° 43° 38.2° - - -
2/27 1:00pm 245 16 G 30 42° 100% - - 42° 43° 38.2° - - -
2/27 12:50pm 246 15 G 38 42° 100% - - 42° 43° 38.2° - - -
2/27 12:40pm 255 16 G 34 42° 100% - - 42° 43° 38.2° - - -
2/27 12:30pm 255 13 G 26 42° 100% - - 42° 43° 38.2° - - -
2/27 12:20pm 245 13 G 27 42° 100% - - 42° 43° 38.2° - - -
2/27 12:10pm 236 14 G 31 42° 100% - - 42° 43° 38.2° - - -
2/27 12:00pm 225 15 G 30 41° 100% - - 41° 43° 38.2° - - -
2/27 11:50am 238 13 G 30 42° 100% - - 42° 43° 38.2° - - -
2/27 11:40am 246 13 G 29 42° 100% - - 42° 43° 38.2° - - -
2/27 11:30am 256 13 G 21 42° 100% - - 42° 43° 38.2° - - -
2/27 11:20am 262 14 G 25 42° 100% - - 42° 43° 38.2° - - -
2/27 11:10am 255 15 G 25 42° 100% - - 42° 43° 38.2° - - -
2/27 11:00am 255 10 G 25 42° 100% - - 42° 43° 38.2° - - -
2/27 10:50am 240 12 G 25 42° 100% - - 42° 43° 38.2° - - -
2/27 10:40am 242 11 G 20 42° 100% - - 42° 43° 38.2° - - -
2/27 10:30am 247 12 G 22 42° 100% - - 42° 43° 38.2° - - -
2/27 10:20am 239 10 G 24 42° 100% - - 42° 43° 38.2° - - -
2/27 10:10am 256 11 G 26 42° 100% - - 42° 43° 38.2° - - -
2/27 10:00am 249 12 G 25 42° 100% - - 42° 43° 38.2° - - -
2/27 9:50am 257 11 G 20 42° 100% - - 42° 43° 38.2° - - -
2/27 9:40am 267 9 G 17 42° 100% - - 42° 43° 38.2° - - -
2/27 9:30am 268 7 G 15 42° 100% - - 42° 43° 38.2° - - -
2/27 9:20am 283 6 G 15 42° 100% - - 42° 43° 38.2° - - -
2/27 9:10am 238 5 G 16 42° 100% - - 42° 43° 38.2° - - -
2/27 9:00am 271 7 G 25 42° 100% - - 42° 43° 38.2° - - -
2/27 8:50am 265 10 G 23 42° 100% - - 42° 43° 38.2° - - -
2/27 8:40am 254 10 G 25 42° 100% - - 42° 43° 38.2° - - -
2/27 8:30am 262 11 G 23 42° 100% - - 42° 43° 38.2° - - -
2/27 8:20am 263 10 G 23 42° 100% - - 42° 43° 38.2° - - -
2/27 8:10am 264 10 G 21 42° 100% - - 42° 43° 38.2° - - -
2/27 8:00am 262 14 G 24 42° 100% - - 42° 43° 38.2° - - -
2/27 7:50am 252 10 G 21 42° 100% - - 42° 43° 38.2° - - -
2/27 7:40am 249 12 G 21 43° 100% - - 43° 43° 38.2° - - -
2/27 7:30am 234 13 G 24 43° 100% - - 43° 43° 38.2° - - -
2/27 7:20am 235 16 G 27 43° 100% - - 43° 43° 38.2° - - -
2/27 7:10am 237 17 G 28 43° 100% - - 43° 43° 38.2° - - -
2/27 7:00am 235 15 G 30 42° 100% - - 42° 43° 38.2° - - -
2/27 6:50am 245 14 G 26 42° 100% - - 42° 43° 38.2° - - -
2/27 6:40am 255 12 G 25 42° 100% - - 42° 43° 38.2° - - -
2/27 6:30am 258 12 G 24 42° 100% - - 42° 43° 38.2° - - -
2/27 6:20am 247 14 G 24 42° 100% - - 42° 43° 38.2° - - -
2/27 6:10am 265 11 G 23 42° 100% - - 42° 43° 38.2° - - -
2/27 6:00am 272 10 G 20 42° 100% - - 42° 43° 38.2° - - -
2/27 5:50am 255 10 G 25 43° 100% - - 43° 43° 38.2° - - -
2/27 5:40am 249 8 G 18 43° 100% - - 43° 43° 38.2° - - -
2/27 5:30am 288 11 G 27 43° 100% - - 43° 42.9° 38.2° - - -
2/27 5:20am 287 10 G 26 43° 100% - - 43° 42.9° 38.2° - - -
2/27 5:10am 290 11 G 30 43° 100% - - 43° 42.9° 38.2° - - -
2/27 5:00am 271 11 G 29 43° 100% - - 43° 42.9° 38.2° - - -
2/27 4:50am 254 13 G 31 43° 100% - - 43° 42.9° 38.2° - - -
2/27 4:40am 263 13 G 33 43° 100% - - 43° 42.9° 38.2° - - -
2/27 4:30am 274 15 G 31 43° 100% - - 43° 42.9° 38.2° - - -
2/27 4:20am 278 11 G 30 43° 100% - - 43° 42.8° 38.2° - - -
2/27 4:10am 267 11 G 30 42° 100% - - 42° 42.6° 38.2° - - -
2/27 4:00am 278 10 G 23 42° 100% - - 42° 42.2° 38.2° - - -
2/27 3:50am 277 9 G 17 42° 100% - - 42° 41.9° 38.2° - - -
2/27 3:40am 269 9 G 20 42° 100% - - 42° 41.8° 38.2° - - -
2/27 3:30am 244 12 G 23 42° 100% - - 42° 41.8° 38.2° - - -
2/27 3:20am 244 16 G 26 42° 100% - - 42° 41.8° 38.2° - - -
2/27 3:10am 242 14 G 23 42° 100% - - 42° 41.7° 38.2° - - -
2/27 3:00am 240 12 G 24 41° 100% - - 41° 41.5° 38.2° - - -
2/27 2:50am 225 16 G 25 41° 100% - - 41° 41.5° 38.2° - - -
2/27 2:40am 218 17 G 28 41° 100% - - 41° 41.4° 38.2° - - -
2/27 2:30am 220 12 G 26 41° 100% - - 41° 40.8° 38.2° - - -
2/27 2:20am 239 15 G 29 40° 100% - - 40° 40.6° 38.2° - - -
2/27 2:10am 236 13 G 25 40° 100% - - 40° 40.3° 38.2° - - -
2/27 2:00am 232 15 G 26 40° 100% - - 40° 40° 38.2° - - -
2/27 1:50am 228 15 G 23 40° 100% - - 40° 40° 38.2° - - -
2/27 1:40am 236 16 G 25 40° 100% - - 40° 40° 38.2° - - -
2/27 1:30am 228 17 G 27 40° 100% - - 40° 40° 38.2° - - -
2/27 1:20am 226 17 G 25 40° 100% - - 40° 39.7° 38.2° - - -
2/27 1:10am 217 18 G 26 39° 100% - - 39° 39.7° 38.2° - - -
2/27 1:00am 232 16 G 26 39° 100% - - 39° 39.3° 38.2° - - -
2/27 12:50am 230 15 G 24 39° 100% - - 39° 39.2° 38.2° - - -
2/27 12:40am 228 17 G 28 39° 100% - - 39° 39.1° 38.2° - - -
2/27 12:30am 242 17 G 28 39° 100% - - 39° 38.8° 38.2° - - -
2/27 12:20am 231 19 G 30 38° 100% - - 38° 38.7° 38.2° - - -
2/27 12:10am 234 22 G 29 38° 100% - - 38° 38.7° 38.2° - - -
2/27 12:00am 232 18 G 29 38° 100% - - 38° 38.7° 31.6° - - -
2/26 11:50pm 227 21 G 33 38° 100% - - 38° 38.5° 31.6° - - -
2/26 11:40pm 245 17 G 28 38° 100% - - 38° 38.2° 31.6° - - -
2/26 11:30pm 237 21 G 33 38° 100% - - 38° 37.9° 31.6° - - -
2/26 11:20pm 229 20 G 33 37° 100% - - 37° 37.6° 31.6° - - -
2/26 11:10pm 223 20 G 30 37° 100% - - 37° 37.6° 31.6° - - -
2/26 11:00pm 223 22 G 33 37° 89% - - 34° 37.6° 31.6° - - -
2/26 10:50pm 225 22 G 32 37° 81% - - 31° 37.2° 31.6° - - -
2/26 10:40pm 227 23 G 32 36° 79% - - 30° 37° 31.6° - - -
2/26 10:30pm 225 21 G 32 34° 88% - - 31° 37° 31.6° - - -
2/26 10:20pm 232 19 G 29 33° 100% - - 33° 37° 31.6° - - -
2/26 10:10pm 229 19 G 29 33° 100% - - 33° 37° 31.6° - - -
2/26 10:00pm 227 19 G 28 33° 100% - - 33° 37° 31.6° - - -
2/26 9:50pm 231 19 G 29 33° 100% - - 33° 37° 31.6° - - -
2/26 9:40pm 225 19 G 28 32° 100% - - 32° 37° 31.6° - - -
2/26 9:30pm 236 16 G 27 32° 100% - - 32° 37° 31.6° - - -
2/26 9:20pm 231 18 G 26 32° 100% - - 32° 37° 31.6° - - -
2/26 9:10pm 232 19 G 28 33° 100% - - 33° 37° 31.6° - - -
2/26 9:00pm 230 20 G 28 33° 100% - - 33° 37° 31.6° - - -
2/26 8:50pm 236 19 G 28 33° 100% - - 33° 37° 31.6° - - -
2/26 8:40pm 232 21 G 29 33° 100% - - 33° 37° 31.6° - - -
2/26 8:30pm 240 21 G 33 33° 100% - - 33° 37° 31.6° - - -
2/26 8:20pm 243 21 G 31 33° 100% - - 33° 37° 31.6° - - -
2/26 8:10pm 236 21 G 35 33° 100% - - 33° 37° 31.6° - - -
2/26 8:00pm 250 22 G 32 33° 100% - - 33° 37° 31.6° - - -
2/26 7:50pm 251 21 G 33 34° 100% - - 34° 37° 31.6° - - -
2/26 7:40pm 255 21 G 31 34° 100% - - 34° 37° 31.6° - - -
2/26 7:30pm 252 21 G 32 34° 100% - - 34° 37° 31.6° - - -
2/26 7:20pm 247 20 G 30 34° 100% - - 34° 37° 31.6° - - -
2/26 7:10pm 249 20 G 33 35° 100% - - 35° 37° 31.6° - - -
2/26 7:00pm 253 19 G 31 35° 100% - - 35° 37° 31.6° - - -
2/26 6:50pm 251 18 G 28 35° 100% - - 35° 37° 31.6° - - -
2/26 6:40pm 241 19 G 34 35° 100% - - 35° 37° 31.6° - - -
2/26 6:30pm 248 21 G 33 35° 100% - - 35° 37° 31.6° - - -
2/26 6:20pm 250 18 G 26 35° 100% - - 35° 37° 31.6° - - -
2/26 6:10pm 248 21 G 34 35° 100% - - 35° 37° 31.6° - - -
2/26 6:00pm 259 21 G 30 35° 100% - - 35° 37° 31.6° - - -
2/26 5:50pm 257 22 G 32 35° 100% - - 35° 37° 31.6° - - -
2/26 5:40pm 253 21 G 32 36° 100% - - 36° 37° 31.6° - - -
2/26 5:30pm 251 20 G 33 36° 100% - - 36° 37° 31.6° - - -
2/26 5:20pm 244 20 G 31 35° 100% - - 35° 37° 31.6° - - -
2/26 5:10pm 247 18 G 33 35° 100% - - 35° 37° 31.6° - - -
2/26 5:00pm 235 21 G 32 35° 100% - - 35° 37° 31.6° - - -